Time;durP1;ratioP1;P1;durP2;ratioP2;P2;SDS_P1;SDS_P2;PMS_P1;PMS_P2;Temp;Humidity;BMP_temperature;BMP_pressure;BME280_temperature;BME280_humidity;BME280_pressure;Samples;Min_cycle;Max_cycle;Signal;HPM_P1;HPM_P2
2024/04/01 00:01:01;;;;;;;0.40;0.40;;;10.40;60.30;;;;;;4993232;28;20034;-82
2024/04/01 00:03:28;;;;;;;0.10;0.10;;;10.40;87.80;;;;;;4972212;28;20038;-82
2024/04/01 00:05:58;;;;;;;0.10;0.10;;;10.40;99.90;;;;;;4984167;28;20026;-82
2024/04/01 00:08:25;;;;;;;0.10;0.10;;;10.40;59.90;;;;;;4971585;28;20038;-82
2024/04/01 00:10:51;;;;;;;0.10;0.10;;;10.40;96.90;;;;;;4975202;28;20033;-82
2024/04/01 00:13:21;;;;;;;0.10;0.10;;;10.30;95.90;;;;;;4980888;28;20034;-81
2024/04/01 00:15:47;;;;;;;0.10;0.10;;;10.30;97.00;;;;;;4993978;28;20035;-81
2024/04/01 00:18:13;;;;;;;0.20;0.20;;;10.20;99.90;;;;;;5000895;28;20027;-85
2024/04/01 00:20:39;;;;;;;0.20;0.20;;;10.20;99.90;;;;;;4977240;28;20487;-84
2024/04/01 00:23:06;;;;;;;0.10;0.10;;;10.10;99.90;;;;;;4993317;28;20022;-83
2024/04/01 00:25:33;;;;;;;0.10;0.10;;;10.10;99.90;;;;;;4978180;28;20042;-84
2024/04/01 00:27:59;;;;;;;0.15;0.15;;;10.10;99.90;;;;;;4987540;28;20030;-84
2024/04/01 00:30:26;;;;;;;0.10;0.10;;;10.00;99.90;;;;;;4985490;28;20037;-83
2024/04/01 00:32:52;;;;;;;0.10;0.10;;;10.00;99.90;;;;;;4988870;28;20046;-84
2024/04/01 00:35:18;;;;;;;0.22;0.22;;;10.00;99.90;;;;;;4972311;28;20054;-84
2024/04/01 00:37:44;;;;;;;0.10;0.10;;;10.00;99.90;;;;;;4972509;28;20049;-83
2024/04/01 00:40:11;;;;;;;0.30;0.30;;;9.90;99.90;;;;;;4989644;28;20039;-84
2024/04/01 00:42:38;;;;;;;0.10;0.10;;;9.90;99.90;;;;;;4964771;28;20459;-84
2024/04/01 00:45:05;;;;;;;0.10;0.10;;;9.90;99.90;;;;;;4977085;28;20045;-84
2024/04/01 00:47:31;;;;;;;0.10;0.10;;;9.90;99.90;;;;;;4981316;28;20038;-83
2024/04/01 00:49:57;;;;;;;1.23;0.30;;;9.90;99.90;;;;;;4968174;28;20039;-84
2024/04/01 00:52:26;;;;;;;0.22;0.22;;;9.90;99.90;;;;;;4972571;28;20031;-84
2024/04/01 00:54:54;;;;;;;0.20;0.20;;;9.90;99.90;;;;;;4972698;28;20102;-84
2024/04/01 00:57:21;;;;;;;0.20;0.20;;;10.00;99.90;;;;;;4992516;28;20034;-83
2024/04/01 00:59:51;;;;;;;0.30;0.30;;;10.00;99.90;;;;;;4968347;28;20030;-82
2024/04/01 01:02:17;;;;;;;0.10;0.10;;;9.90;99.90;;;;;;4972693;28;20049;-83
2024/04/01 01:04:44;;;;;;;0.17;0.17;;;9.90;1.00;;;;;;4986729;28;20042;-83
2024/04/01 01:07:12;;;;;;;0.20;0.20;;;9.90;1.00;;;;;;4991374;28;20097;-82
2024/04/01 01:09:39;;;;;;;0.50;0.45;;;9.90;1.00;;;;;;4990962;28;20038;-82
2024/04/01 01:12:06;;;;;;;0.40;0.40;;;9.80;1.00;;;;;;4974606;28;20034;-81
2024/04/01 01:14:32;;;;;;;0.10;0.10;;;9.80;1.00;;;;;;4986523;28;20035;-80
2024/04/01 01:16:58;;;;;;;0.10;0.10;;;9.80;32.20;;;;;;5007706;28;20030;-80
2024/04/01 01:19:27;;;;;;;0.10;0.10;;;9.80;68.30;;;;;;4993327;28;20065;-85
2024/04/01 01:22:06;;;;;;;0.47;0.35;;;9.70;99.20;;;;;;5004841;28;20037;-80
2024/04/01 01:24:33;;;;;;;0.47;0.40;;;9.70;40.70;;;;;;4993261;28;20378;-79
2024/04/01 01:26:59;;;;;;;0.10;0.10;;;9.70;8.30;;;;;;5014103;28;20064;-79
2024/04/01 01:29:29;;;;;;;0.10;0.10;;;9.70;20.60;;;;;;4994288;28;20049;-80
2024/04/01 01:32:00;;;;;;;0.10;0.10;;;9.60;49.00;;;;;;4996399;28;20029;-79
2024/04/01 01:34:30;;;;;;;2.17;0.57;;;9.60;99.20;;;;;;5006527;28;20026;-78
2024/04/01 01:36:56;;;;;;;0.20;0.20;;;9.70;61.20;;;;;;4992616;28;20045;-79
2024/04/01 01:39:22;;;;;;;0.20;0.20;;;9.70;56.40;;;;;;4999114;28;20398;-83
2024/04/01 01:41:48;;;;;;;2.30;0.85;;;9.70;15.60;;;;;;4992763;28;20046;-79
2024/04/01 01:44:15;;;;;;;0.10;0.10;;;9.70;16.90;;;;;;5010069;28;20038;-79
2024/04/01 01:46:41;;;;;;;0.10;0.10;;;9.70;29.90;;;;;;4980093;28;20034;-80
2024/04/01 01:49:07;;;;;;;0.10;0.10;;;9.70;64.20;;;;;;4995885;28;20046;-79
2024/04/01 01:51:33;;;;;;;0.20;0.20;;;9.60;90.50;;;;;;4984245;28;20104;-79
2024/04/01 01:53:59;;;;;;;0.10;0.10;;;9.60;82.20;;;;;;5003608;28;20413;-78
2024/04/01 01:56:25;;;;;;;5.68;0.93;;;9.60;99.90;;;;;;5013656;28;20022;-80
2024/04/01 01:58:52;;;;;;;0.10;0.10;;;9.60;99.90;;;;;;4995204;28;20038;-79
2024/04/01 02:01:18;;;;;;;0.10;0.10;;;9.60;99.90;;;;;;4994042;28;20041;-84
2024/04/01 02:03:44;;;;;;;0.40;0.40;;;9.60;99.90;;;;;;4991974;28;20045;-79
2024/04/01 02:06:11;;;;;;;0.43;0.43;;;9.60;99.90;;;;;;4992744;28;20034;-80
2024/04/01 02:08:37;;;;;;;0.20;0.20;;;9.60;99.90;;;;;;4992849;28;20186;-80
2024/04/01 02:11:04;;;;;;;0.10;0.10;;;9.60;99.90;;;;;;4994010;28;20053;-79
2024/04/01 02:13:30;;;;;;;0.10;0.10;;;9.60;99.90;;;;;;5010695;28;20038;-79
2024/04/01 02:16:07;;;;;;;0.10;0.10;;;9.60;99.90;;;;;;4972205;28;20042;-79
2024/04/01 02:18:34;;;;;;;0.15;0.15;;;9.60;99.90;;;;;;4987101;28;20042;-79
2024/04/01 02:21:01;;;;;;;0.40;0.40;;;9.60;99.90;;;;;;4985156;28;20053;-80
2024/04/01 02:23:31;;;;;;;0.10;0.10;;;9.60;99.90;;;;;;4987613;28;20023;-79
2024/04/01 02:26:04;;;;;;;0.10;0.10;;;9.60;99.90;;;;;;4975278;28;20582;-79
2024/04/01 02:28:31;;;;;;;0.75;0.57;;;9.60;99.90;;;;;;4971599;28;20030;-78
2024/04/01 02:30:58;;;;;;;0.20;0.20;;;9.60;99.90;;;;;;4977039;28;20038;-81
2024/04/01 02:33:26;;;;;;;0.47;0.47;;;9.60;99.90;;;;;;4996747;28;20387;-80
2024/04/01 02:35:52;;;;;;;0.10;0.10;;;9.50;99.90;;;;;;4989984;28;20039;-78
2024/04/01 02:38:19;;;;;;;0.20;0.20;;;9.50;99.90;;;;;;4974484;28;20487;-84
2024/04/01 02:40:46;;;;;;;0.30;0.30;;;9.50;99.90;;;;;;4986512;28;20034;-81
2024/04/01 02:43:13;;;;;;;0.20;0.20;;;9.50;99.90;;;;;;4980357;28;20051;-80
2024/04/01 02:45:39;;;;;;;0.40;0.40;;;9.40;99.90;;;;;;4973521;28;20050;-80
2024/04/01 02:48:06;;;;;;;0.10;0.10;;;9.50;99.90;;;;;;4969314;28;20035;-79
2024/04/01 02:50:33;;;;;;;0.20;0.20;;;9.40;99.90;;;;;;4988162;28;20050;-79
2024/04/01 02:52:59;;;;;;;0.10;0.10;;;9.50;99.90;;;;;;4971943;28;20041;-81
2024/04/01 02:55:25;;;;;;;0.57;0.57;;;9.50;99.90;;;;;;4987584;28;20028;-80
2024/04/01 02:57:51;;;;;;;0.10;0.10;;;9.50;99.90;;;;;;4975309;28;20042;-80
2024/04/01 03:00:17;;;;;;;0.45;0.40;;;9.50;99.90;;;;;;4970387;28;20038;-78
2024/04/01 03:02:45;;;;;;;1.08;0.90;;;9.60;99.90;;;;;;4987987;28;20038;-80
2024/04/01 03:05:13;;;;;;;1.25;0.20;;;9.50;99.90;;;;;;4963970;28;20042;-80
2024/04/01 03:07:40;;;;;;;0.30;0.30;;;9.50;99.90;;;;;;4987217;28;20847;-79
2024/04/01 03:10:11;;;;;;;0.10;0.10;;;9.50;99.90;;;;;;4991583;28;20026;-80
2024/04/01 03:12:41;;;;;;;0.20;0.20;;;9.50;99.90;;;;;;4969840;28;20339;-80
2024/04/01 03:15:08;;;;;;;0.10;0.10;;;9.50;99.90;;;;;;4991283;28;20046;-80
2024/04/01 03:17:34;;;;;;;0.10;0.10;;;9.50;99.90;;;;;;4974940;28;20034;-80
2024/04/01 03:20:01;;;;;;;0.10;0.10;;;9.50;99.90;;;;;;4975648;28;20038;-80
2024/04/01 03:22:27;;;;;;;0.10;0.10;;;9.50;99.90;;;;;;4964719;28;20057;-81
2024/04/01 03:24:54;;;;;;;0.10;0.10;;;9.50;99.90;;;;;;4984135;28;20038;-79
2024/04/01 03:27:22;;;;;;;0.38;0.30;;;9.40;99.90;;;;;;4988611;28;20034;-78
2024/04/01 03:29:48;;;;;;;0.10;0.10;;;9.40;99.90;;;;;;4988188;28;20494;-79
2024/04/01 03:32:14;;;;;;;0.10;0.10;;;9.40;99.90;;;;;;4986914;28;20375;-79
2024/04/01 03:34:41;;;;;;;1.13;0.70;;;9.40;99.90;;;;;;4988821;28;20031;-80
2024/04/01 03:37:07;;;;;;;4.38;1.40;;;9.50;99.90;;;;;;4989727;28;20038;-79
2024/04/01 03:39:33;;;;;;;0.55;0.52;;;9.40;99.90;;;;;;4989951;28;20408;-79
2024/04/01 03:41:59;;;;;;;0.15;0.15;;;9.50;99.90;;;;;;4987683;28;20030;-80
2024/04/01 03:44:25;;;;;;;0.10;0.10;;;9.50;99.90;;;;;;4951256;28;20035;-80
2024/04/01 03:46:52;;;;;;;0.45;0.45;;;9.50;99.90;;;;;;4973799;28;20039;-81
2024/04/01 03:49:18;;;;;;;0.20;0.20;;;9.40;99.90;;;;;;4983111;28;20049;-80
2024/04/01 03:51:44;;;;;;;0.10;0.10;;;9.50;99.90;;;;;;4982754;28;20037;-80
2024/04/01 03:54:11;;;;;;;0.10;0.10;;;9.40;99.90;;;;;;4992636;28;20026;-79
2024/04/01 03:56:37;;;;;;;0.10;0.10;;;9.40;99.90;;;;;;4987431;28;20023;-80
2024/04/01 03:59:03;;;;;;;0.20;0.20;;;9.50;99.90;;;;;;4972684;28;20038;-78
2024/04/01 04:01:31;;;;;;;0.20;0.20;;;9.50;99.90;;;;;;4972599;28;20366;-77
2024/04/01 04:03:57;;;;;;;0.20;0.20;;;9.50;99.90;;;;;;4967557;28;20041;-80
2024/04/01 04:06:23;;;;;;;0.10;0.10;;;9.50;99.90;;;;;;4985047;28;20034;-81
2024/04/01 04:08:50;;;;;;;0.20;0.20;;;9.50;99.90;;;;;;4989745;28;20374;-79
2024/04/01 04:11:16;;;;;;;0.10;0.10;;;9.60;99.90;;;;;;4986036;28;20031;-79
2024/04/01 04:13:42;;;;;;;0.20;0.20;;;9.50;99.90;;;;;;4973716;28;20050;-78
2024/04/01 04:16:09;;;;;;;0.10;0.10;;;9.50;99.90;;;;;;4990499;28;20034;-79
2024/04/01 04:18:35;;;;;;;0.10;0.10;;;9.50;99.90;;;;;;4991461;28;20022;-78
2024/04/01 04:21:01;;;;;;;0.20;0.20;;;9.40;99.90;;;;;;4979879;28;20383;-78
2024/04/01 04:23:29;;;;;;;0.20;0.20;;;9.40;99.90;;;;;;4973713;28;20038;-77
2024/04/01 04:25:55;;;;;;;0.20;0.20;;;9.50;99.90;;;;;;4991609;28;20034;-77
2024/04/01 04:28:21;;;;;;;0.32;0.32;;;9.50;99.90;;;;;;4974090;28;20034;-77
2024/04/01 04:30:48;;;;;;;0.10;0.10;;;9.50;99.90;;;;;;4955336;28;20057;-78
2024/04/01 04:33:14;;;;;;;0.10;0.10;;;9.50;99.90;;;;;;4974002;28;20053;-77
2024/04/01 04:35:40;;;;;;;0.30;0.30;;;9.50;99.90;;;;;;4990774;28;20039;-77
2024/04/01 04:38:06;;;;;;;0.10;0.10;;;9.50;99.90;;;;;;4989283;28;20053;-78
2024/04/01 04:40:33;;;;;;;0.17;0.17;;;9.50;99.90;;;;;;4956200;28;20046;-77
2024/04/01 04:42:59;;;;;;;0.10;0.10;;;9.50;99.90;;;;;;4984712;28;20038;-78
2024/04/01 04:45:26;;;;;;;0.30;0.22;;;9.50;99.90;;;;;;4971618;28;20026;-79
2024/04/01 04:47:52;;;;;;;0.10;0.10;;;9.40;99.90;;;;;;4995957;28;20041;-77
2024/04/01 04:50:19;;;;;;;0.10;0.10;;;9.50;99.90;;;;;;4994863;28;20030;-77
2024/04/01 04:52:45;;;;;;;0.10;0.10;;;9.40;99.90;;;;;;4993822;28;20273;-78
2024/04/01 04:55:11;;;;;;;0.10;0.10;;;9.50;99.90;;;;;;4994536;28;20026;-77
2024/04/01 04:57:38;;;;;;;0.75;0.57;;;9.50;99.90;;;;;;4978277;28;20042;-77
2024/04/01 05:00:20;;;;;;;0.70;0.70;;;9.50;99.90;;;;;;4977453;28;20034;-77
2024/04/01 05:02:50;;;;;;;0.10;0.10;;;9.50;99.90;;;;;;4995633;28;20034;-77
2024/04/01 05:05:20;;;;;;;0.20;0.20;;;9.50;99.90;;;;;;4984703;28;20049;-77
2024/04/01 05:07:48;;;;;;;0.30;0.30;;;9.50;99.90;;;;;;4998487;28;20238;-77
2024/04/01 05:10:15;;;;;;;0.57;0.57;;;9.50;99.90;;;;;;4980223;28;20493;-77
2024/04/01 05:12:45;;;;;;;0.10;0.10;;;9.50;99.90;;;;;;4997801;28;20359;-77
2024/04/01 05:15:11;;;;;;;0.10;0.10;;;9.50;99.90;;;;;;4969849;28;20069;-77
2024/04/01 05:17:38;;;;;;;0.13;0.13;;;9.50;99.90;;;;;;4992655;28;20034;-77
2024/04/01 05:20:04;;;;;;;0.20;0.20;;;9.50;99.90;;;;;;4971761;28;20042;-77
2024/04/01 05:22:31;;;;;;;0.10;0.10;;;9.50;99.90;;;;;;4970301;28;20043;-77
2024/04/01 05:24:57;;;;;;;0.30;0.30;;;9.50;99.90;;;;;;4986143;28;20053;-77
2024/04/01 05:27:23;;;;;;;0.10;0.10;;;9.50;99.90;;;;;;4994202;28;20037;-78
2024/04/01 05:30:10;;;;;;;0.45;0.45;;;9.40;99.90;;;;;;4977149;28;20053;-76
2024/04/01 05:32:37;;;;;;;0.20;0.20;;;9.40;99.90;;;;;;4988111;28;20030;-77
2024/04/01 05:35:07;;;;;;;2.10;1.00;;;9.40;99.90;;;;;;4990009;28;20026;-77
2024/04/01 05:37:34;;;;;;;0.63;0.50;;;9.50;99.90;;;;;;4968568;28;20031;-76
2024/04/01 05:40:00;;;;;;;0.17;0.17;;;9.40;99.90;;;;;;4993309;28;20042;-77
2024/04/01 05:42:27;;;;;;;0.10;0.10;;;9.40;99.90;;;;;;4994642;28;20344;-75
2024/04/01 05:44:53;;;;;;;0.10;0.10;;;9.40;99.90;;;;;;4987949;28;20046;-75
2024/04/01 05:47:19;;;;;;;0.10;0.10;;;9.40;99.90;;;;;;4991720;28;20485;-75
2024/04/01 05:49:45;;;;;;;0.10;0.10;;;9.40;99.90;;;;;;4987180;28;20038;-75
2024/04/01 05:52:11;;;;;;;0.20;0.20;;;9.40;99.90;;;;;;4975753;28;20038;-75
2024/04/01 05:54:37;;;;;;;0.10;0.10;;;9.40;99.90;;;;;;4990154;28;20042;-75
2024/04/01 05:57:04;;;;;;;0.55;0.47;;;9.40;99.90;;;;;;4991046;28;20026;-75
2024/04/01 05:59:30;;;;;;;0.20;0.20;;;9.50;99.90;;;;;;4992553;28;20030;-77
2024/04/01 06:01:56;;;;;;;0.10;0.10;;;9.40;99.90;;;;;;4974347;28;20042;-76
2024/04/01 06:04:24;;;;;;;0.85;0.85;;;9.40;99.90;;;;;;4971524;28;20023;-75
2024/04/01 06:06:51;;;;;;;0.13;0.13;;;9.40;99.90;;;;;;4990454;28;20355;-76
2024/04/01 06:09:17;;;;;;;0.20;0.15;;;9.50;99.90;;;;;;4990342;28;20031;-75
2024/04/01 06:11:45;;;;;;;0.40;0.40;;;9.50;99.90;;;;;;4988939;28;20042;-77
2024/04/01 06:14:11;;;;;;;0.10;0.10;;;9.50;99.90;;;;;;4973636;28;20049;-77
2024/04/01 06:16:38;;;;;;;5.70;0.82;;;9.50;99.90;;;;;;4979030;28;20387;-75
2024/04/01 06:19:05;;;;;;;0.10;0.10;;;9.50;99.90;;;;;;4985556;28;20026;-75
2024/04/01 06:21:32;;;;;;;0.38;0.38;;;9.50;99.90;;;;;;4975578;28;20037;-75
2024/04/01 06:23:59;;;;;;;0.30;0.30;;;9.60;99.90;;;;;;4991430;28;20034;-75
2024/04/01 06:26:26;;;;;;;0.10;0.10;;;9.60;99.90;;;;;;4992431;28;20033;-75
2024/04/01 06:28:52;;;;;;;0.25;0.25;;;9.60;99.90;;;;;;4972353;28;20467;-75
2024/04/01 06:31:19;;;;;;;0.57;0.57;;;9.60;99.90;;;;;;4988411;28;20499;-75
2024/04/01 06:33:45;;;;;;;1.75;0.63;;;9.60;99.90;;;;;;4974367;28;20042;-74
2024/04/01 06:36:11;;;;;;;0.47;0.45;;;9.60;99.90;;;;;;4988052;28;20038;-76
2024/04/01 06:38:38;;;;;;;0.35;0.35;;;9.60;99.90;;;;;;4987726;28;20034;-76
2024/04/01 06:41:05;;;;;;;0.20;0.20;;;9.60;99.90;;;;;;4970650;28;20046;-76
2024/04/01 06:43:32;;;;;;;0.32;0.32;;;9.60;99.90;;;;;;4975163;28;20026;-78
2024/04/01 06:46:00;;;;;;;0.20;0.20;;;9.70;99.90;;;;;;4984361;28;20038;-76
2024/04/01 06:48:27;;;;;;;0.10;0.10;;;9.70;99.90;;;;;;4988917;28;20026;-76
2024/04/01 06:50:53;;;;;;;0.65;0.50;;;9.60;99.90;;;;;;4988560;28;20045;-76
2024/04/01 06:53:21;;;;;;;0.10;0.10;;;9.50;99.90;;;;;;4990916;28;20026;-77
2024/04/01 06:55:48;;;;;;;0.20;0.20;;;9.50;99.90;;;;;;4990700;28;20030;-76
2024/04/01 06:58:14;;;;;;;0.10;0.10;;;9.50;99.90;;;;;;4986468;28;20463;-77
2024/04/01 07:00:41;;;;;;;0.10;0.10;;;9.60;99.90;;;;;;4987204;28;20039;-77
2024/04/01 07:03:08;;;;;;;0.20;0.20;;;9.60;99.90;;;;;;4990478;28;20038;-77
2024/04/01 07:05:34;;;;;;;0.52;0.47;;;9.60;99.90;;;;;;4985182;28;20037;-77
2024/04/01 07:08:01;;;;;;;0.68;0.68;;;9.60;99.90;;;;;;4973553;28;20038;-77
2024/04/01 07:10:29;;;;;;;0.30;0.30;;;9.50;99.90;;;;;;4966096;28;20034;-76
2024/04/01 07:12:56;;;;;;;2.83;0.98;;;9.50;99.90;;;;;;4972356;28;20383;-77
2024/04/01 07:15:22;;;;;;;0.10;0.10;;;9.60;99.90;;;;;;4989999;28;20050;-77
2024/04/01 07:17:49;;;;;;;0.40;0.30;;;9.50;99.90;;;;;;4985724;28;20026;-77
2024/04/01 07:20:15;;;;;;;1.83;1.08;;;9.50;99.90;;;;;;4988936;28;20039;-76
2024/04/01 07:22:41;;;;;;;0.17;0.17;;;9.50;99.90;;;;;;4986798;28;20038;-77
2024/04/01 07:25:08;;;;;;;1.08;0.35;;;9.50;99.90;;;;;;4990922;28;20470;-77
2024/04/01 07:27:34;;;;;;;0.22;0.22;;;9.50;99.90;;;;;;4989950;28;20022;-79
2024/04/01 07:30:05;;;;;;;0.20;0.20;;;9.50;99.90;;;;;;4971476;28;20046;-78
2024/04/01 07:32:32;;;;;;;2.53;1.85;;;9.50;99.90;;;;;;4988374;28;20031;-76
2024/04/01 07:34:59;;;;;;;0.10;0.10;;;9.50;99.90;;;;;;4978647;28;20419;-76
2024/04/01 07:37:25;;;;;;;0.43;0.43;;;9.50;52.80;;;;;;4988792;28;20031;-78
2024/04/01 07:39:54;;;;;;;0.25;0.25;;;9.50;1.00;;;;;;4989490;28;20045;-76
2024/04/01 07:42:21;;;;;;;0.10;0.10;;;9.50;1.00;;;;;;4990287;28;20039;-76
2024/04/01 07:44:48;;;;;;;1.45;0.90;;;9.40;99.90;;;;;;4990266;28;20038;-75
2024/04/01 07:47:15;;;;;;;1.33;0.40;;;9.40;99.90;;;;;;4985421;28;20034;-75
2024/04/01 07:49:41;;;;;;;0.32;0.32;;;9.40;99.90;;;;;;4983666;28;20026;-75
2024/04/01 07:52:09;;;;;;;0.52;0.52;;;9.40;99.90;;;;;;4984529;28;20030;-77
2024/04/01 07:54:35;;;;;;;0.10;0.10;;;9.40;99.90;;;;;;4992289;28;20046;-81
2024/04/01 07:57:02;;;;;;;0.35;0.35;;;9.40;99.90;;;;;;4991883;28;20030;-76
2024/04/01 07:59:29;;;;;;;0.30;0.30;;;9.40;99.90;;;;;;4987165;28;20474;-76
2024/04/01 08:01:56;;;;;;;0.38;0.38;;;9.50;93.20;;;;;;4986851;28;20030;-76
2024/04/01 08:04:23;;;;;;;1.20;0.30;;;9.50;57.60;;;;;;4985550;28;20037;-76
2024/04/01 08:06:50;;;;;;;0.75;0.75;;;9.50;91.30;;;;;;4987346;28;20053;-79
2024/04/01 08:09:17;;;;;;;0.52;0.32;;;9.60;91.70;;;;;;4990329;28;20448;-80
2024/04/01 08:11:46;;;;;;;0.57;0.57;;;9.50;78.10;;;;;;4987589;28;20124;-79
2024/04/01 08:14:13;;;;;;;1.48;0.95;;;9.60;40.60;;;;;;4983648;28;20053;-75
2024/04/01 08:16:42;;;;;;;1.60;1.23;;;9.50;1.00;;;;;;4985714;28;20065;-78
2024/04/01 08:19:08;;;;;;;0.10;0.10;;;9.60;19.70;;;;;;4986330;28;20030;-76
2024/04/01 08:21:34;;;;;;;0.10;0.10;;;9.60;20.70;;;;;;4983618;28;20026;-77
2024/04/01 08:24:01;;;;;;;0.10;0.10;;;9.50;40.00;;;;;;4970698;28;20054;-77
2024/04/01 08:26:27;;;;;;;0.10;0.10;;;9.50;1.00;;;;;;4970915;28;20045;-75
2024/04/01 08:28:53;;;;;;;0.10;0.10;;;9.50;1.00;;;;;;4987986;28;20034;-76
2024/04/01 08:31:19;;;;;;;0.40;0.40;;;9.50;1.00;;;;;;4985759;28;20038;-76
2024/04/01 08:33:45;;;;;;;0.10;0.10;;;9.50;1.00;;;;;;4955135;28;20034;-76
2024/04/01 08:36:12;;;;;;;1.75;0.47;;;9.60;1.00;;;;;;4982561;28;20045;-77
2024/04/01 08:38:38;;;;;;;0.20;0.20;;;9.60;2.40;;;;;;4987636;28;20042;-78
2024/04/01 08:41:23;;;;;;;0.10;0.10;;;9.70;1.00;;;;;;4984180;28;20375;-78
2024/04/01 08:43:52;;;;;;;0.10;0.10;;;9.60;41.60;;;;;;4983500;28;20378;-77
2024/04/01 08:46:19;;;;;;;0.10;0.10;;;9.70;36.30;;;;;;4990421;28;20027;-77
2024/04/01 08:48:49;;;;;;;0.10;0.10;;;9.70;23.00;;;;;;4972303;28;20459;-78
2024/04/01 08:51:20;;;;;;;0.30;0.30;;;9.70;96.60;;;;;;4964049;28;20363;-77
2024/04/01 08:54:13;;;;;;;0.28;0.28;;;9.80;99.90;;;;;;4971650;28;20030;-76
2024/04/01 08:56:40;;;;;;;0.10;0.10;;;9.80;58.90;;;;;;4981892;28;20051;-76
2024/04/01 08:59:09;;;;;;;0.55;0.40;;;9.80;73.90;;;;;;4980894;28;20340;-76
2024/04/01 09:01:36;;;;;;;0.10;0.10;;;9.80;58.00;;;;;;4991370;28;20038;-77
2024/04/01 09:04:03;;;;;;;2.17;1.45;;;9.90;97.40;;;;;;4985587;28;20034;-77
2024/04/01 09:06:30;;;;;;;0.25;0.20;;;9.90;20.90;;;;;;4969753;28;20038;-77
2024/04/01 09:08:56;;;;;;;0.38;0.38;;;9.90;43.70;;;;;;4985803;28;20818;-77
2024/04/01 09:11:29;;;;;;;0.10;0.10;;;10.10;99.90;;;;;;4987427;28;20034;-78
2024/04/01 09:13:55;;;;;;;0.10;0.10;;;10.20;83.20;;;;;;4989399;28;20065;-77
2024/04/01 09:16:22;;;;;;;0.90;0.90;;;10.30;76.20;;;;;;4987257;28;20027;-77
2024/04/01 09:18:52;;;;;;;0.20;0.20;;;10.40;93.70;;;;;;4982679;28;20030;-78
2024/04/01 09:21:20;;;;;;;0.10;0.10;;;10.30;33.50;;;;;;4986092;28;20038;-78
2024/04/01 09:23:47;;;;;;;0.32;0.32;;;10.40;72.80;;;;;;4985113;28;20031;-77
2024/04/01 09:26:15;;;;;;;0.10;0.10;;;10.40;1.00;;;;;;4983397;28;20390;-76
2024/04/01 09:28:41;;;;;;;0.10;0.10;;;10.30;1.00;;;;;;4974491;28;20038;-78
2024/04/01 09:31:11;;;;;;;0.10;0.10;;;10.20;1.00;;;;;;4973312;28;20041;-77
2024/04/01 09:33:38;;;;;;;0.10;0.10;;;10.30;1.00;;;;;;4991787;28;20026;-80
2024/04/01 09:36:06;;;;;;;0.10;0.10;;;10.40;1.00;;;;;;4993170;28;20451;-79
2024/04/01 09:38:35;;;;;;;0.45;0.43;;;10.60;1.00;;;;;;4993540;28;20027;-78
2024/04/01 09:41:02;;;;;;;0.50;0.43;;;10.70;1.00;;;;;;4993910;28;20023;-77
2024/04/01 09:43:32;;;;;;;0.15;0.15;;;10.80;1.00;;;;;;5001032;28;20030;-75
2024/04/01 09:45:59;;;;;;;0.37;0.23;;;10.80;1.00;;;;;;5001009;28;20131;-81
2024/04/01 09:48:27;;;;;;;0.10;0.10;;;10.70;1.00;;;;;;5012737;28;20034;-80
2024/04/01 09:51:01;;;;;;;0.30;0.30;;;10.60;1.00;;;;;;4996330;28;20145;-77
2024/04/01 09:53:28;;;;;;;0.10;0.10;;;10.60;1.00;;;;;;5003089;28;20026;-75
2024/04/01 09:56:01;;;;;;;0.20;0.20;;;10.50;1.00;;;;;;4977127;28;20034;-88
2024/04/01 09:58:35;;;;;;;0.30;0.30;;;10.50;1.00;;;;;;4980789;28;20039;-84
2024/04/01 10:01:30;;;;;;;0.30;0.30;;;10.50;1.00;;;;;;4963714;28;20049;-84
2024/04/01 10:04:42;;;;;;;0.10;0.10;;;10.60;1.00;;;;;;4966206;28;20490;-84
2024/04/01 10:07:53;;;;;;;0.10;0.10;;;10.60;1.00;;;;;;4987491;28;20034;-86
2024/04/01 10:10:35;;;;;;;;;;;10.60;99.90;;;;;;4986802;28;20037;-88
2024/04/01 10:13:27;;;;;;;0.20;0.20;;;10.70;1.00;;;;;;4992351;28;19905;-91
2024/04/01 10:16:16;;;;;;;0.10;0.10;;;10.70;1.00;;;;;;4962056;28;20050;-86
2024/04/01 10:18:45;;;;;;;0.10;0.10;;;10.70;99.90;;;;;;5195438;23;20058;-86
2024/04/01 10:21:35;;;;;;;0.10;0.10;;;10.80;1.00;;;;;;4981606;28;20046;-85
2024/04/01 10:24:20;;;;;;;0.10;0.10;;;10.70;1.00;;;;;;4980599;28;20035;-86
2024/04/01 10:26:58;;;;;;;0.10;0.10;;;10.70;99.90;;;;;;4969817;28;20030;-89
2024/04/01 10:29:42;;;;;;;0.10;0.10;;;10.70;1.00;;;;;;4985111;28;20031;-82
2024/04/01 10:32:46;;;;;;;0.10;0.10;;;10.60;1.00;;;;;;4984344;28;20042;-83
2024/04/01 10:35:47;;;;;;;0.10;0.10;;;10.60;1.00;;;;;;4998352;28;20034;-81
2024/04/01 10:38:16;;;;;;;;;;;10.70;1.00;;;;;;4999018;28;20049;-84
2024/04/01 10:40:42;;;;;;;0.10;0.10;;;10.60;1.00;;;;;;4985248;28;19914;-83
2024/04/01 10:43:42;;;;;;;0.10;0.10;;;10.70;1.00;;;;;;4985229;28;20041;-85
2024/04/01 10:46:29;;;;;;;0.95;0.32;;;10.80;1.00;;;;;;4983228;28;20030;-84
2024/04/01 10:49:16;;;;;;;0.10;0.10;;;10.80;1.00;;;;;;4975781;28;20057;-84
2024/04/01 10:52:16;;;;;;;0.45;0.30;;;10.60;1.00;;;;;;4981964;28;20035;-83
2024/04/01 10:55:03;;;;;;;0.10;0.10;;;10.50;1.00;;;;;;4979688;28;20046;-85
2024/04/01 10:57:54;;;;;;;0.10;0.10;;;10.50;1.00;;;;;;4982728;28;20046;-87
2024/04/01 11:00:49;;;;;;;0.10;0.10;;;10.70;1.00;;;;;;4976684;28;20031;-88
2024/04/01 11:03:53;;;;;;;0.10;0.10;;;10.90;1.00;;;;;;4982772;28;20053;-92
2024/04/01 11:06:58;;;;;;;0.10;0.10;;;11.10;1.00;;;;;;4976420;28;20045;-87
2024/04/01 11:09:43;;;;;;;0.13;0.13;;;11.30;1.00;;;;;;4961405;28;20476;-79
2024/04/01 11:12:25;;;;;;;0.30;0.20;;;11.20;1.00;;;;;;4963034;28;20051;-80
2024/04/01 11:14:54;;;;;;;0.10;0.10;;;11.30;1.00;;;;;;4978113;28;20046;-79
2024/04/01 11:17:20;;;;;;;0.10;0.10;;;11.20;1.00;;;;;;4975054;28;20030;-82
2024/04/01 11:20:07;;;;;;;0.20;0.20;;;11.10;1.00;;;;;;4976675;28;20042;-79
2024/04/01 11:22:39;;;;;;;0.10;0.10;;;11.00;1.00;;;;;;4960439;28;20046;-79
2024/04/01 11:25:41;;;;;;;0.20;0.20;;;11.00;1.00;;;;;;4969529;28;20043;-78
2024/04/01 11:28:59;;;;;;;0.20;0.20;;;11.00;1.00;;;;;;4962563;28;20053;-80
2024/04/01 11:31:30;;;;;;;0.10;0.10;;;10.90;1.00;;;;;;4958603;28;20051;-79
2024/04/01 11:34:14;;;;;;;0.10;0.10;;;10.90;1.00;;;;;;4969521;28;20035;-78
2024/04/01 11:37:10;;;;;;;0.30;0.30;;;10.80;1.00;;;;;;4976522;28;20042;-76
2024/04/01 11:39:39;;;;;;;0.20;0.20;;;10.60;1.00;;;;;;4972042;28;20027;-77
2024/04/01 11:42:07;;;;;;;0.10;0.10;;;10.50;1.00;;;;;;4971103;28;20034;-76
2024/04/01 11:44:35;;;;;;;0.10;0.10;;;10.40;1.00;;;;;;4984270;28;20034;-77
2024/04/01 11:47:02;;;;;;;1.00;0.95;;;10.40;1.00;;;;;;4980827;28;20034;-77
2024/04/01 11:49:41;;;;;;;0.10;0.10;;;10.50;99.90;;;;;;4959672;28;20041;-76
2024/04/01 11:52:16;;;;;;;1.00;0.52;;;10.60;99.90;;;;;;4975238;28;20038;-79
2024/04/01 11:54:43;;;;;;;0.15;0.15;;;10.60;99.90;;;;;;4975264;28;20037;-83
2024/04/01 11:57:20;;;;;;;0.20;0.20;;;10.50;99.90;;;;;;4973918;28;20031;-83
2024/04/01 11:59:47;;;;;;;0.30;0.30;;;10.50;99.90;;;;;;4957292;28;20368;-77
2024/04/01 12:02:13;;;;;;;0.10;0.10;;;10.60;99.90;;;;;;4974253;28;20034;-83
2024/04/01 12:04:43;;;;;;;0.20;0.20;;;10.70;99.90;;;;;;4977005;28;20022;-84
2024/04/01 12:07:15;;;;;;;0.10;0.10;;;10.80;99.90;;;;;;4978667;28;20031;-84
2024/04/01 12:09:44;;;;;;;0.20;0.20;;;10.80;99.90;;;;;;4976325;28;20058;-89
2024/04/01 12:12:12;;;;;;;0.30;0.20;;;10.80;99.90;;;;;;4978836;28;20023;-81
2024/04/01 12:14:38;;;;;;;0.10;0.10;;;10.80;99.90;;;;;;4979013;28;20027;-84
2024/04/01 12:17:07;;;;;;;0.10;0.10;;;10.90;99.90;;;;;;4975431;28;20034;-84
2024/04/01 12:19:40;;;;;;;0.10;0.10;;;11.00;99.90;;;;;;4970740;28;20058;-83
2024/04/01 12:22:08;;;;;;;0.25;0.25;;;11.00;88.60;;;;;;4966717;28;20062;-84
2024/04/01 12:24:34;;;;;;;0.13;0.13;;;10.90;25.40;;;;;;4963541;28;20031;-81
2024/04/01 12:27:03;;;;;;;2.15;0.57;;;10.90;1.00;;;;;;4959347;28;20030;-82
2024/04/01 12:29:31;;;;;;;0.10;0.10;;;10.90;91.70;;;;;;4942921;29;20372;-90
2024/04/01 12:32:00;;;;;;;0.10;0.10;;;10.90;54.70;;;;;;4959893;28;20043;-82
2024/04/01 12:34:26;;;;;;;0.20;0.20;;;10.90;29.60;;;;;;4958000;28;20038;-81
2024/04/01 12:36:53;;;;;;;0.10;0.10;;;10.80;29.10;;;;;;4959764;28;20425;-83
2024/04/01 12:39:21;;;;;;;0.30;0.30;;;10.80;1.00;;;;;;4938541;28;20392;-82
2024/04/01 12:41:49;;;;;;;0.10;0.10;;;10.70;17.20;;;;;;4951373;28;20062;-84
2024/04/01 12:44:15;;;;;;;0.30;0.30;;;10.60;1.00;;;;;;4969104;28;20034;-84
2024/04/01 12:46:43;;;;;;;0.10;0.10;;;10.60;22.00;;;;;;4972168;28;20493;-80
2024/04/01 12:49:13;;;;;;;0.10;0.10;;;10.60;15.50;;;;;;4968001;28;20377;-82
2024/04/01 12:51:41;;;;;;;0.10;0.10;;;10.70;1.00;;;;;;4962165;28;20035;-81
2024/04/01 12:54:10;;;;;;;0.10;0.10;;;10.70;1.00;;;;;;4953820;28;20039;-77
2024/04/01 12:56:39;;;;;;;0.10;0.10;;;10.70;1.00;;;;;;4954936;28;20043;-80
2024/04/01 12:59:27;;;;;;;0.10;0.10;;;10.60;1.00;;;;;;4959789;28;20042;-81
2024/04/01 13:02:15;;;;;;;0.20;0.20;;;10.60;1.00;;;;;;4955375;28;20055;-81
2024/04/01 13:05:09;;;;;;;0.20;0.20;;;10.60;1.00;;;;;;4962482;28;20043;-83
2024/04/01 13:08:04;;;;;;;0.25;0.25;;;10.80;1.00;;;;;;4959698;28;20053;-81
2024/04/01 13:10:54;;;;;;;0.13;0.13;;;10.90;1.00;;;;;;4957246;28;20019;-81